X  Fermer Données météorologiques d'aviation de Metar     YPAD Adelaide International Airport
Température
15°C Température
8°C Point de rosée
63% Humidité



Vitesse
0 KM/H
0 MPH
0 M/S
0 KTS



Calme
Nord
Conditions actuelles

Claire Claire
Pression 1017.92 (hPa) - 30.06 (inHg)
Visibilité 6.2 (mile) - 10 (km)
Aéroport
Code de l'aéroport YPAD

Emplacement: Adelaide International Airport
Distance: 20 (km)

Metar:
YPAD 192200Z 00000KT CAVOK 15/08 Q1018 NOSIG

Temps: 20-10-2020 8:30 am ACDT